createdAt,value
2018-03-04T00:01:40.548Z,38.00
2018-03-04T00:04:10.343Z,47.50
2018-03-04T00:06:40.129Z,52.57
2018-03-04T00:09:09.957Z,55.40
2018-03-04T00:11:39.872Z,56.27
2018-03-04T00:14:09.678Z,56.13
2018-03-04T00:16:39.424Z,59.97
2018-03-04T00:19:09.174Z,60.50
2018-03-04T00:21:38.959Z,68.37
2018-03-04T00:24:08.840Z,69.37
2018-03-04T00:26:38.629Z,71.37
2018-03-04T00:29:08.452Z,66.97
2018-03-04T00:31:38.219Z,69.37
2018-03-04T00:34:08.034Z,71.20
2018-03-04T00:36:37.798Z,73.20
2018-03-04T00:39:07.625Z,70.37
2018-03-04T00:41:37.444Z,75.17
2018-03-04T00:44:07.212Z,74.30
2018-03-04T00:46:36.929Z,71.47
2018-03-04T00:49:06.721Z,73.30
2018-03-04T00:51:36.495Z,75.07
2018-03-04T00:54:06.377Z,75.80
2018-03-04T00:56:36.147Z,79.90
2018-03-04T00:59:05.930Z,76.23
2018-03-04T01:01:35.784Z,74.17
2018-03-04T01:04:05.581Z,77.27
2018-03-04T01:06:35.417Z,77.57
2018-03-04T01:09:05.260Z,74.70
2018-03-04T01:11:35.081Z,78.40
2018-03-04T01:14:04.879Z,77.43
2018-03-04T01:16:34.610Z,72.60
2018-03-04T01:19:04.420Z,77.63
2018-03-04T01:21:34.179Z,75.30
2018-03-04T01:24:04.031Z,74.93
2018-03-04T01:26:33.824Z,74.07
2018-03-04T01:29:03.622Z,79.33
2018-03-04T01:31:33.432Z,78.40
2018-03-04T01:34:03.218Z,77.27
2018-03-04T01:36:32.985Z,81.87
2018-03-04T01:39:02.822Z,82.67
2018-03-04T01:41:32.602Z,81.17
2018-03-04T01:44:02.455Z,79.27
2018-03-04T01:46:32.185Z,78.67
2018-03-04T01:49:01.961Z,80.47
2018-03-04T01:51:43.422Z,68.60
2018-03-04T01:54:13.215Z,78.93
2018-03-04T01:56:42.963Z,76.47
2018-03-04T01:59:12.856Z,81.43
2018-03-04T02:01:42.682Z,85.00
2018-03-04T02:04:12.441Z,82.03
2018-03-04T02:06:43.265Z,78.13
2018-03-04T02:09:13.035Z,71.80
2018-03-04T02:11:42.858Z,72.03
2018-03-04T02:14:12.662Z,77.07
2018-03-04T02:16:42.394Z,79.93
2018-03-04T02:19:12.115Z,72.10
2018-03-04T02:21:41.892Z,75.10
2018-03-04T02:24:11.685Z,73.30
2018-03-04T02:26:41.451Z,80.43
2018-03-04T02:29:11.284Z,79.23
2018-03-04T02:31:41.140Z,76.83
2018-03-04T02:34:10.981Z,83.97
2018-03-04T02:36:40.760Z,83.47
2018-03-04T02:39:10.682Z,77.33
2018-03-04T02:41:40.463Z,78.83
2018-03-04T02:44:10.265Z,79.83
2018-03-04T02:46:40.031Z,73.97
2018-03-04T02:49:09.792Z,78.97
2018-03-04T02:51:39.621Z,76.90
2018-03-04T02:54:09.428Z,83.27
2018-03-04T02:56:39.272Z,83.60
2018-03-04T02:59:09.081Z,86.13
2018-03-04T03:01:38.912Z,85.90
2018-03-04T03:04:08.811Z,89.83
2018-03-04T03:06:38.567Z,90.53
2018-03-04T03:09:08.357Z,92.97
2018-03-04T03:11:38.144Z,88.27
2018-03-04T03:14:07.976Z,95.90
2018-03-04T03:16:37.699Z,93.17
2018-03-04T03:19:07.440Z,101.70
2018-03-04T03:21:37.386Z,104.87
2018-03-04T03:24:07.218Z,107.27
2018-03-04T03:26:36.979Z,106.43
2018-03-04T03:29:06.773Z,102.37
2018-03-04T03:31:36.593Z,105.43
2018-03-04T03:34:06.403Z,99.10
2018-03-04T03:36:36.100Z,96.50
2018-03-04T03:39:06.083Z,102.03
2018-03-04T03:41:35.846Z,99.77
2018-03-04T03:44:05.680Z,100.87
2018-03-04T03:46:35.488Z,93.90
2018-03-04T03:49:05.208Z,93.80
2018-03-04T03:51:35.053Z,85.70
2018-03-04T03:54:04.787Z,97.97
2018-03-04T03:56:34.542Z,91.67
2018-03-04T03:59:04.364Z,96.67
2018-03-04T04:01:34.222Z,104.20
2018-03-04T04:04:04.109Z,102.10
2018-03-04T04:06:33.914Z,96.07
2018-03-04T04:09:03.924Z,95.10
2018-03-04T04:11:33.752Z,89.60
2018-03-04T04:14:03.592Z,92.30
2018-03-04T04:16:33.330Z,99.73
2018-03-04T04:19:03.069Z,87.83
2018-03-04T04:21:32.934Z,86.87
2018-03-04T04:24:02.701Z,77.43
2018-03-04T04:26:32.454Z,66.03
2018-03-04T04:29:02.255Z,72.67
2018-03-04T04:31:32.097Z,79.70
2018-03-04T04:34:01.960Z,79.07
2018-03-04T04:36:31.668Z,81.83
2018-03-04T04:39:01.550Z,93.23
2018-03-04T04:41:31.351Z,98.77
2018-03-04T04:44:01.137Z,101.30
2018-03-04T04:46:31.020Z,109.87
2018-03-04T04:49:00.782Z,93.67
2018-03-04T04:51:30.741Z,96.37
2018-03-04T04:54:00.526Z,101.20
2018-03-04T04:56:30.286Z,97.70
2018-03-04T04:59:00.062Z,99.80
2018-03-04T05:01:29.861Z,96.93
2018-03-04T05:03:59.711Z,96.77
2018-03-04T05:06:29.427Z,99.73
2018-03-04T05:08:59.181Z,92.47
2018-03-04T05:11:28.984Z,98.47
2018-03-04T05:13:58.839Z,93.80
2018-03-04T05:16:28.663Z,97.37
2018-03-04T05:18:58.375Z,85.40
2018-03-04T05:21:28.178Z,91.30
2018-03-04T05:23:57.994Z,97.13
2018-03-04T05:26:27.712Z,96.10
2018-03-04T05:28:57.520Z,90.13
2018-03-04T05:31:27.280Z,92.13
2018-03-04T05:33:57.115Z,94.37
2018-03-04T05:36:26.907Z,90.93
2018-03-04T05:38:56.687Z,95.10
2018-03-04T05:41:26.500Z,86.70
2018-03-04T05:43:56.393Z,91.70
2018-03-04T05:46:26.136Z,92.03
2018-03-04T05:48:55.875Z,88.13
2018-03-04T05:51:25.619Z,88.90
2018-03-04T05:53:55.425Z,97.13
2018-03-04T05:56:25.122Z,102.17
2018-03-04T05:58:54.917Z,96.20
2018-03-04T06:01:24.730Z,92.43
2018-03-04T06:03:54.500Z,91.57
2018-03-04T06:06:24.285Z,100.07
2018-03-04T06:08:54.028Z,92.87
2018-03-04T06:11:23.800Z,107.10
2018-03-04T06:13:53.597Z,101.97
2018-03-04T06:16:23.318Z,105.73
2018-03-04T06:18:53.070Z,100.80
2018-03-04T06:21:22.912Z,98.23
2018-03-04T06:23:52.736Z,88.77
2018-03-04T06:26:22.509Z,81.13
2018-03-04T06:28:52.248Z,86.60
2018-03-04T06:31:22.004Z,84.63
2018-03-04T06:33:51.824Z,84.57
2018-03-04T06:36:21.593Z,86.27
2018-03-04T06:38:51.456Z,104.13
2018-03-04T06:41:21.268Z,126.93
2018-03-04T06:43:51.163Z,132.90
2018-03-04T06:46:20.881Z,174.20
2018-03-04T06:49:02.879Z,151.90
2018-03-04T06:51:45.419Z,129.43
2018-03-04T06:54:15.241Z,118.70
2018-03-04T06:56:44.966Z,111.77
2018-03-04T06:59:14.798Z,108.83
2018-03-04T07:01:44.610Z,113.00
2018-03-04T07:04:14.411Z,110.47
2018-03-04T07:06:44.186Z,107.30
2018-03-04T07:09:13.960Z,111.10
2018-03-04T07:11:43.774Z,103.87
2018-03-04T07:14:13.599Z,113.10
2018-03-04T07:16:43.316Z,109.17
2018-03-04T07:19:13.094Z,112.30
2018-03-04T07:21:42.897Z,113.87
2018-03-04T07:24:12.626Z,106.93
2018-03-04T07:26:42.428Z,107.33
2018-03-04T07:29:12.219Z,108.87
2018-03-04T07:31:42.108Z,107.40
2018-03-04T07:34:11.881Z,106.30
2018-03-04T07:36:41.598Z,118.27
2018-03-04T07:39:11.453Z,118.63
2018-03-04T07:41:41.332Z,118.70
2018-03-04T07:44:11.118Z,117.27
2018-03-04T07:46:40.890Z,116.03
2018-03-04T07:49:10.614Z,112.87
2018-03-04T07:51:40.476Z,119.40
2018-03-04T07:54:10.326Z,120.50
2018-03-04T07:56:40.142Z,119.57
2018-03-04T07:59:10.019Z,124.47
2018-03-04T08:01:39.837Z,112.33
2018-03-04T08:04:09.669Z,120.77
2018-03-04T08:06:39.401Z,112.13
2018-03-04T08:09:09.210Z,96.20
2018-03-04T08:11:38.990Z,100.73
2018-03-04T08:14:08.787Z,94.43
2018-03-04T08:16:38.550Z,107.63
2018-03-04T08:19:08.310Z,103.70
2018-03-04T08:21:38.077Z,92.43
2018-03-04T08:24:07.811Z,95.67
2018-03-04T08:26:49.296Z,94.73
2018-03-04T08:29:19.044Z,95.80
2018-03-04T08:31:48.965Z,90.70
2018-03-04T08:34:18.736Z,83.20
2018-03-04T08:36:48.455Z,83.97
2018-03-04T08:39:18.259Z,85.53
2018-03-04T08:41:48.004Z,79.10
2018-03-04T08:44:17.794Z,78.50
2018-03-04T08:46:47.507Z,78.30
2018-03-04T08:49:17.217Z,78.53
2018-03-04T08:51:47.075Z,80.87
2018-03-04T08:54:16.865Z,79.43
2018-03-04T08:56:46.598Z,77.50
2018-03-04T08:59:16.432Z,84.13
2018-03-04T09:01:46.253Z,81.00
2018-03-04T09:04:16.051Z,83.23
2018-03-04T09:06:45.786Z,85.53
2018-03-04T09:09:15.572Z,81.10
2018-03-04T09:11:45.410Z,80.60
2018-03-04T09:14:15.166Z,80.03
2018-03-04T09:16:44.940Z,78.47
2018-03-04T09:19:14.692Z,70.47
2018-03-04T09:21:44.443Z,68.93
2018-03-04T09:24:14.289Z,68.20
2018-03-04T09:26:44.017Z,66.80
2018-03-04T09:29:13.893Z,73.07
2018-03-04T09:31:43.644Z,72.37
2018-03-04T09:34:13.472Z,72.07
2018-03-04T09:36:43.245Z,66.50
2018-03-04T09:39:13.010Z,69.67
2018-03-04T09:41:42.875Z,69.87
2018-03-04T09:44:12.659Z,73.27
2018-03-04T09:46:42.396Z,69.13
2018-03-04T09:49:12.275Z,73.33
2018-03-04T09:51:42.005Z,72.90
2018-03-04T09:54:11.893Z,69.30
2018-03-04T09:56:41.628Z,68.57
2018-03-04T09:59:11.519Z,73.10
2018-03-04T10:01:41.302Z,73.80
2018-03-04T10:04:11.069Z,73.47
2018-03-04T10:06:40.839Z,70.83
2018-03-04T10:09:10.598Z,71.00
2018-03-04T10:11:40.433Z,67.03
2018-03-04T10:14:10.225Z,63.10
2018-03-04T10:16:39.951Z,65.23
2018-03-04T10:19:09.777Z,63.53
2018-03-04T10:21:39.531Z,59.97
2018-03-04T10:24:09.346Z,63.87
2018-03-04T10:26:39.095Z,67.03
2018-03-04T10:29:08.996Z,61.53
2018-03-04T10:31:38.829Z,61.60
2018-03-04T10:34:08.615Z,67.47
2018-03-04T10:36:38.389Z,70.50
2018-03-04T10:39:08.218Z,65.63
2018-03-04T10:41:37.994Z,62.37
2018-03-04T10:44:07.804Z,69.47
2018-03-04T10:46:37.520Z,71.87
2018-03-04T10:49:07.299Z,73.53
2018-03-04T10:51:37.008Z,68.43
2018-03-04T10:54:06.809Z,87.50
2018-03-04T10:56:36.598Z,87.20
2018-03-04T10:59:06.368Z,88.60
2018-03-04T11:01:51.112Z,89.93
2018-03-04T11:04:21.078Z,90.43
2018-03-04T11:06:50.871Z,80.77
2018-03-04T11:09:20.657Z,89.90
2018-03-04T11:11:50.495Z,92.87
2018-03-04T11:14:20.378Z,79.13
2018-03-04T11:16:50.164Z,83.80
2018-03-04T11:19:19.952Z,98.80
2018-03-04T11:21:49.664Z,98.73
2018-03-04T11:24:19.491Z,99.23
2018-03-04T11:26:49.230Z,104.80
2018-03-04T11:29:19.047Z,105.37
2018-03-04T11:31:48.838Z,105.27
2018-03-04T11:34:18.562Z,103.67
2018-03-04T11:36:48.318Z,97.67
2018-03-04T11:39:18.105Z,98.40
2018-03-04T11:41:47.933Z,96.93
2018-03-04T11:44:17.739Z,99.70
2018-03-04T11:46:47.477Z,102.77
2018-03-04T11:49:17.279Z,86.60
2018-03-04T11:51:47.172Z,95.17
2018-03-04T11:54:17.110Z,92.03
2018-03-04T11:56:46.832Z,88.40
2018-03-04T11:59:16.640Z,83.37
2018-03-04T12:01:46.398Z,84.60
2018-03-04T12:04:16.191Z,89.83
2018-03-04T12:06:46.025Z,95.93
2018-03-04T12:09:15.802Z,85.60
2018-03-04T12:11:45.592Z,89.37
2018-03-04T12:14:15.483Z,86.50
2018-03-04T12:16:45.204Z,86.73
2018-03-04T12:19:15.086Z,81.43
2018-03-04T12:21:44.794Z,81.43
2018-03-04T12:24:14.517Z,76.13
2018-03-04T12:26:44.270Z,78.13
2018-03-04T12:29:14.075Z,69.63
2018-03-04T12:31:43.870Z,69.67
2018-03-04T12:34:13.779Z,72.40
2018-03-04T12:36:43.538Z,70.23
2018-03-04T12:39:13.350Z,69.47
2018-03-04T12:41:43.146Z,76.13
2018-03-04T12:44:12.991Z,75.03
2018-03-04T12:46:42.696Z,76.70
2018-03-04T12:49:12.506Z,78.03
2018-03-04T12:51:42.340Z,79.50
2018-03-04T12:54:12.123Z,76.13
2018-03-04T12:56:41.883Z,75.27
2018-03-04T12:59:11.792Z,79.93
2018-03-04T13:01:41.666Z,84.63
2018-03-04T13:04:11.531Z,86.90
2018-03-04T13:06:41.432Z,90.67
2018-03-04T13:09:11.412Z,85.93
2018-03-04T13:11:41.372Z,81.20
2018-03-04T13:14:11.482Z,82.37
2018-03-04T13:16:41.392Z,78.87
2018-03-04T13:19:11.422Z,83.83
2018-03-04T13:21:41.335Z,79.03
2018-03-04T13:24:11.246Z,77.67
2018-03-04T13:26:41.052Z,75.67
2018-03-04T13:29:10.981Z,74.13
2018-03-04T13:31:40.998Z,81.43
2018-03-04T13:34:11.017Z,79.70
2018-03-04T13:36:40.826Z,87.80
2018-03-04T13:39:10.696Z,93.20
2018-03-04T13:41:40.652Z,87.63
2018-03-04T13:44:10.646Z,88.83
2018-03-04T13:46:40.583Z,95.67
2018-03-04T13:49:10.406Z,91.77
2018-03-04T13:51:40.409Z,90.70
2018-03-04T13:54:10.526Z,91.37
2018-03-04T13:56:40.452Z,97.70
2018-03-04T13:59:10.371Z,94.47
2018-03-04T14:01:40.281Z,88.00
2018-03-04T14:04:11.005Z,88.07
2018-03-04T14:06:40.930Z,79.80
2018-03-04T14:09:10.733Z,80.07
2018-03-04T14:11:40.764Z,67.33
2018-03-04T14:14:10.679Z,56.97
2018-03-04T14:16:40.477Z,51.07
2018-03-04T14:19:10.366Z,46.63
2018-03-04T14:21:40.204Z,42.80
2018-03-04T14:24:10.123Z,37.80
2018-03-04T14:26:39.937Z,43.00
2018-03-04T14:29:10.679Z,40.60
2018-03-04T14:31:40.681Z,39.70
2018-03-04T14:34:10.609Z,42.37
2018-03-04T14:36:40.518Z,45.47
2018-03-04T14:39:10.394Z,42.10
2018-03-04T14:41:41.065Z,41.67
2018-03-04T14:44:10.960Z,43.10
2018-03-04T14:46:40.795Z,45.03
2018-03-04T14:49:10.615Z,45.27
2018-03-04T14:51:40.524Z,44.57
2018-03-04T14:54:10.534Z,47.27
2018-03-04T14:56:40.452Z,51.97
2018-03-04T14:59:10.366Z,49.03
2018-03-04T15:01:40.287Z,50.60
2018-03-04T15:04:10.317Z,50.43
2018-03-04T15:06:40.217Z,51.87
2018-03-04T15:09:10.249Z,47.60
2018-03-04T15:11:40.959Z,48.93
2018-03-04T15:14:10.772Z,46.63
2018-03-04T15:16:40.586Z,45.37
2018-03-04T15:19:10.519Z,50.80
2018-03-04T15:21:40.318Z,51.17
2018-03-04T15:24:10.421Z,48.27
2018-03-04T15:26:40.542Z,48.60
2018-03-04T15:29:10.379Z,47.27
2018-03-04T15:31:40.280Z,49.17
2018-03-04T15:34:11.028Z,51.93
2018-03-04T15:36:40.932Z,56.43
2018-03-04T15:39:10.872Z,51.73
2018-03-04T15:41:40.967Z,53.47
2018-03-04T15:44:10.881Z,49.53
2018-03-04T15:46:40.802Z,55.43
2018-03-04T15:49:10.909Z,53.63
2018-03-04T15:51:40.734Z,52.37
2018-03-04T15:54:10.661Z,62.83
2018-03-04T15:56:40.564Z,59.10
2018-03-04T15:59:10.659Z,57.63
2018-03-04T16:01:40.511Z,56.77
2018-03-04T16:04:10.424Z,53.77
2018-03-04T16:06:41.142Z,60.50
2018-03-04T16:09:11.572Z,62.97
2018-03-04T16:11:41.491Z,63.70
2018-03-04T16:14:11.367Z,59.37
2018-03-04T16:16:41.218Z,61.50
2018-03-04T16:19:11.129Z,61.30
2018-03-04T16:21:40.989Z,65.30
2018-03-04T16:24:10.979Z,69.30
2018-03-04T16:26:40.972Z,60.30
2018-03-04T16:29:10.833Z,61.70
2018-03-04T16:31:40.721Z,61.83
2018-03-04T16:34:10.723Z,57.23
2018-03-04T16:36:40.527Z,58.90
2018-03-04T16:39:10.544Z,63.07
2018-03-04T16:41:40.560Z,59.50
2018-03-04T16:44:10.484Z,63.70
2018-03-04T16:46:40.294Z,65.80
2018-03-04T16:49:10.208Z,66.33
2018-03-04T16:51:40.022Z,61.60
2018-03-04T16:54:10.056Z,66.03
2018-03-04T16:56:40.685Z,67.17
2018-03-04T16:59:11.444Z,72.27
2018-03-04T17:01:42.643Z,74.50
2018-03-04T17:04:13.372Z,69.43
2018-03-04T17:06:44.023Z,73.10
2018-03-04T17:09:14.611Z,74.47
2018-03-04T17:11:45.482Z,72.53
2018-03-04T17:14:16.216Z,71.50
2018-03-04T17:16:47.198Z,67.53
2018-03-04T17:19:17.684Z,73.20
2018-03-04T17:21:48.416Z,71.80
2018-03-04T17:24:19.053Z,72.40
2018-03-04T17:26:50.095Z,69.97
2018-03-04T17:29:21.269Z,69.10
2018-03-04T17:31:51.843Z,71.57
2018-03-04T17:34:22.591Z,72.67
2018-03-04T17:36:53.485Z,78.30
2018-03-04T17:39:23.463Z,71.73
2018-03-04T17:41:54.520Z,69.80
2018-03-04T17:44:25.025Z,67.87
2018-03-04T17:46:55.924Z,68.73
2018-03-04T17:49:27.258Z,71.57
2018-03-04T17:51:58.158Z,62.13
2018-03-04T17:54:28.814Z,66.50
2018-03-04T17:56:59.631Z,69.27
2018-03-04T17:59:30.258Z,72.40
2018-03-04T18:02:00.701Z,66.77
2018-03-04T18:04:31.586Z,73.20
2018-03-04T18:07:02.461Z,69.40
2018-03-04T18:09:33.194Z,66.27
2018-03-04T18:12:03.204Z,67.27
2018-03-04T18:14:34.406Z,69.70
2018-03-04T18:17:04.910Z,69.23
2018-03-04T18:19:35.986Z,67.47
2018-03-04T18:22:07.204Z,71.27
2018-03-04T18:24:37.386Z,66.33
2018-03-04T18:27:08.718Z,65.80
2018-03-04T18:29:40.495Z,72.93
2018-03-04T18:32:11.902Z,67.37
2018-03-04T18:34:43.228Z,74.97
2018-03-04T18:37:14.887Z,69.33
2018-03-04T18:39:46.794Z,77.03
2018-03-04T18:42:18.368Z,71.87
2018-03-04T18:44:49.404Z,72.70
2018-03-04T18:47:21.494Z,74.33
2018-03-04T18:49:53.012Z,72.33
2018-03-04T18:52:25.420Z,73.03
2018-03-04T18:54:57.348Z,71.33
2018-03-04T18:57:28.853Z,85.37
2018-03-04T19:00:00.079Z,74.57
2018-03-04T19:02:31.189Z,74.87
2018-03-04T19:05:02.016Z,73.73
2018-03-04T19:07:32.057Z,71.53
2018-03-04T19:10:02.379Z,74.87
2018-03-04T19:12:32.912Z,70.73
2018-03-04T19:15:04.395Z,67.30
2018-03-04T19:17:35.172Z,64.90
2018-03-04T19:20:05.122Z,65.37
2018-03-04T19:22:35.134Z,65.73
2018-03-04T19:25:06.502Z,61.00
2018-03-04T19:27:38.040Z,53.17
2018-03-04T19:30:09.246Z,51.77
2018-03-04T19:32:39.981Z,57.60
2018-03-04T19:35:11.294Z,51.20
2018-03-04T19:37:43.134Z,52.73
2018-03-04T19:40:14.022Z,54.17
2018-03-04T19:42:45.262Z,55.77
2018-03-04T19:45:16.406Z,57.83
2018-03-04T19:47:47.975Z,52.50
2018-03-04T19:50:19.247Z,58.47
2018-03-04T19:52:50.908Z,52.53
2018-03-04T19:55:22.197Z,50.30
2018-03-04T19:57:53.533Z,46.30
2018-03-04T20:00:25.502Z,50.47
2018-03-04T20:02:57.011Z,49.40
2018-03-04T20:05:27.970Z,47.87
2018-03-04T20:07:58.538Z,49.37
2018-03-04T20:10:29.641Z,47.80
2018-03-04T20:13:00.789Z,45.27
2018-03-04T20:15:32.567Z,47.93
2018-03-04T20:18:04.131Z,50.23
2018-03-04T20:20:35.589Z,47.17
2018-03-04T20:23:07.811Z,43.70
2018-03-04T20:25:38.150Z,41.93
2018-03-04T20:28:09.303Z,47.07
2018-03-04T20:30:40.550Z,47.63
2018-03-04T20:33:11.995Z,46.30
2018-03-04T20:35:43.417Z,48.10
2018-03-04T20:38:14.359Z,51.60
2018-03-04T20:40:45.771Z,48.43
2018-03-04T20:43:17.264Z,47.87
2018-03-04T20:45:48.401Z,49.43
2018-03-04T20:48:19.146Z,49.03
2018-03-04T20:50:49.798Z,44.90
2018-03-04T20:53:20.520Z,45.07
2018-03-04T20:55:50.828Z,48.37
2018-03-04T20:58:21.936Z,45.83
2018-03-04T21:00:52.698Z,47.33
2018-03-04T21:03:23.292Z,48.73
2018-03-04T21:05:53.970Z,53.43
2018-03-04T21:08:24.966Z,53.03
2018-03-04T21:10:55.643Z,56.33
2018-03-04T21:13:26.328Z,52.90
2018-03-04T21:15:56.405Z,53.50
2018-03-04T21:18:27.554Z,48.63
2018-03-04T21:20:57.958Z,53.63
2018-03-04T21:23:28.624Z,50.77
2018-03-04T21:25:59.230Z,51.43
2018-03-04T21:28:30.193Z,53.23
2018-03-04T21:31:01.667Z,57.13
2018-03-04T21:33:32.258Z,48.73
2018-03-04T21:36:02.862Z,51.83
2018-03-04T21:38:33.837Z,48.00
2018-03-04T21:41:04.539Z,47.10
2018-03-04T21:43:34.798Z,48.93
2018-03-04T21:46:05.762Z,48.87
2018-03-04T21:48:36.017Z,49.60
2018-03-04T21:51:06.280Z,49.77
2018-03-04T21:53:37.058Z,49.30
2018-03-04T21:56:07.439Z,48.13
2018-03-04T21:58:37.358Z,50.40
2018-03-04T22:01:07.772Z,50.20
2018-03-04T22:03:38.874Z,50.10
2018-03-04T22:06:09.629Z,47.70
2018-03-04T22:08:40.502Z,48.97
2018-03-04T22:11:10.619Z,51.17
2018-03-04T22:13:41.037Z,43.57
2018-03-04T22:16:11.929Z,45.47
2018-03-04T22:18:41.787Z,43.77
2018-03-04T22:21:12.288Z,45.13
2018-03-04T22:23:42.962Z,48.13
2018-03-04T22:26:14.734Z,49.17
2018-03-04T22:28:45.110Z,50.13
2018-03-04T22:31:15.625Z,46.60
2018-03-04T22:33:46.278Z,47.00
2018-03-04T22:36:17.004Z,48.27
2018-03-04T22:38:48.163Z,46.30
2018-03-04T22:41:18.659Z,45.60
2018-03-04T22:43:49.395Z,43.40
2018-03-04T22:46:20.173Z,45.63
2018-03-04T22:48:50.791Z,44.73
2018-03-04T22:51:22.017Z,45.67
2018-03-04T22:53:52.832Z,45.40
2018-03-04T22:56:23.716Z,44.90
2018-03-04T22:58:54.133Z,43.27
2018-03-04T23:01:24.147Z,45.60
2018-03-04T23:03:55.080Z,47.13
2018-03-04T23:06:25.537Z,49.17
2018-03-04T23:08:57.029Z,55.80
2018-03-04T23:11:27.297Z,63.43
2018-03-04T23:13:57.955Z,67.87
2018-03-04T23:16:28.568Z,71.93
2018-03-04T23:18:59.094Z,73.70
2018-03-04T23:21:29.115Z,72.57
2018-03-04T23:23:59.408Z,73.40
2018-03-04T23:26:30.781Z,73.13
2018-03-04T23:29:03.513Z,62.57
2018-03-04T23:31:34.218Z,66.13
2018-03-04T23:34:04.886Z,63.00
2018-03-04T23:36:36.483Z,68.47
2018-03-04T23:39:07.223Z,71.00
2018-03-04T23:41:37.671Z,70.43
2018-03-04T23:44:08.172Z,69.03
2018-03-04T23:46:39.097Z,65.07
2018-03-04T23:49:09.951Z,61.33
2018-03-04T23:51:40.611Z,65.63
2018-03-04T23:54:11.736Z,65.77
2018-03-04T23:56:41.863Z,63.07
2018-03-04T23:59:12.687Z,58.90
